createdAt,value
2018-05-12T00:01:05.804Z,16.10
2018-05-12T00:03:33.427Z,16.47
2018-05-12T00:06:01.027Z,16.60
2018-05-12T00:08:28.671Z,16.43
2018-05-12T00:10:56.277Z,16.60
2018-05-12T00:13:23.877Z,16.37
2018-05-12T00:15:51.512Z,23.53
2018-05-12T00:18:19.106Z,20.50
2018-05-12T00:20:46.728Z,17.70
2018-05-12T00:23:14.326Z,17.63
2018-05-12T00:25:42.166Z,19.97
2018-05-12T00:28:09.758Z,18.47
2018-05-12T00:30:37.352Z,21.80
2018-05-12T00:33:04.986Z,20.90
2018-05-12T00:35:32.590Z,19.17
2018-05-12T00:38:00.215Z,20.27
2018-05-12T00:40:27.832Z,21.07
2018-05-12T00:42:55.561Z,19.20
2018-05-12T00:45:23.108Z,19.90
2018-05-12T00:47:50.724Z,27.83
2018-05-12T00:50:18.341Z,31.30
2018-05-12T00:52:45.948Z,22.63
2018-05-12T00:55:13.589Z,21.20
2018-05-12T00:57:41.194Z,23.33
2018-05-12T01:00:08.858Z,22.77
2018-05-12T01:02:36.463Z,24.57
2018-05-12T01:05:04.071Z,19.90
2018-05-12T01:07:31.700Z,18.83
2018-05-12T01:09:59.302Z,20.77
2018-05-12T01:12:26.925Z,23.60
2018-05-12T01:14:54.522Z,22.70
2018-05-12T01:17:22.363Z,19.77
2018-05-12T01:19:49.965Z,19.50
2018-05-12T01:22:17.565Z,16.83
2018-05-12T01:24:45.190Z,19.83
2018-05-12T01:27:12.789Z,18.90
2018-05-12T01:29:40.418Z,18.47
2018-05-12T01:32:08.022Z,19.30
2018-05-12T01:34:35.798Z,17.80
2018-05-12T01:37:03.391Z,19.07
2018-05-12T01:39:30.994Z,17.37
2018-05-12T01:41:58.627Z,18.50
2018-05-12T01:44:26.219Z,18.20
2018-05-12T01:46:53.843Z,20.10
2018-05-12T01:49:21.444Z,19.07
2018-05-12T01:51:49.174Z,20.53
2018-05-12T01:54:16.775Z,21.07
2018-05-12T01:56:44.379Z,21.10
2018-05-12T01:59:11.998Z,21.10
2018-05-12T02:01:39.593Z,20.90
2018-05-12T02:04:07.213Z,21.63
2018-05-12T02:06:34.814Z,21.33
2018-05-12T02:09:02.586Z,20.47
2018-05-12T02:11:30.183Z,21.07
2018-05-12T02:13:57.786Z,19.60
2018-05-12T02:16:25.419Z,20.40
2018-05-12T02:18:53.014Z,19.40
2018-05-12T02:21:20.641Z,19.83
2018-05-12T02:23:48.246Z,20.60
2018-05-12T02:26:15.913Z,21.03
2018-05-12T02:28:43.536Z,20.10
2018-05-12T02:31:11.136Z,18.80
2018-05-12T02:33:38.761Z,20.20
2018-05-12T02:36:06.362Z,19.80
2018-05-12T02:38:34.314Z,21.07
2018-05-12T02:41:01.913Z,21.00
2018-05-12T02:43:29.506Z,21.33
2018-05-12T02:45:57.122Z,20.10
2018-05-12T02:48:24.719Z,19.90
2018-05-12T02:50:52.732Z,21.13
2018-05-12T02:53:20.331Z,20.60
2018-05-12T02:55:47.947Z,21.93
2018-05-12T02:58:15.570Z,19.20
2018-05-12T03:00:43.196Z,21.43
2018-05-12T03:03:10.810Z,21.10
2018-05-12T03:05:38.397Z,20.23
2018-05-12T03:08:06.262Z,21.60
2018-05-12T03:10:33.869Z,20.53
2018-05-12T03:13:01.476Z,19.10
2018-05-12T03:15:29.096Z,20.20
2018-05-12T03:17:56.715Z,19.30
2018-05-12T03:20:24.339Z,19.77
2018-05-12T03:22:51.937Z,18.47
2018-05-12T03:25:20.002Z,19.70
2018-05-12T03:27:47.596Z,18.47
2018-05-12T03:30:15.195Z,18.53
2018-05-12T03:32:42.818Z,17.70
2018-05-12T03:35:10.424Z,16.57
2018-05-12T03:37:38.058Z,13.90
2018-05-12T03:40:05.671Z,15.60
2018-05-12T03:42:33.536Z,13.50
2018-05-12T03:45:01.145Z,14.70
2018-05-12T03:47:28.751Z,13.70
2018-05-12T03:49:56.390Z,13.93
2018-05-12T03:52:23.986Z,13.43
2018-05-12T03:54:51.618Z,13.67
2018-05-12T03:57:19.285Z,13.83
2018-05-12T03:59:47.067Z,14.10
2018-05-12T04:02:14.739Z,15.07
2018-05-12T04:04:54.269Z,12.70
2018-05-12T04:07:33.537Z,15.20
2018-05-12T04:10:14.517Z,13.90
2018-05-12T04:12:42.124Z,14.20
2018-05-12T04:15:09.718Z,15.10
2018-05-12T04:17:37.360Z,16.13
2018-05-12T04:20:04.966Z,14.40
2018-05-12T04:22:32.583Z,15.90
2018-05-12T04:25:00.185Z,16.70
2018-05-12T04:27:27.922Z,14.90
2018-05-12T04:29:55.527Z,14.67
2018-05-12T04:32:23.130Z,15.43
2018-05-12T04:34:50.752Z,15.97
2018-05-12T04:37:18.345Z,16.07
2018-05-12T04:39:45.970Z,16.97
2018-05-12T04:42:13.571Z,16.20
2018-05-12T04:44:41.216Z,15.83
2018-05-12T04:47:08.812Z,16.30
2018-05-12T04:49:36.410Z,16.07
2018-05-12T04:52:04.054Z,17.97
2018-05-12T04:54:31.654Z,19.30
2018-05-12T04:56:59.269Z,20.40
2018-05-12T04:59:26.864Z,21.13
2018-05-12T05:01:54.684Z,20.80
2018-05-12T05:04:22.284Z,21.83
2018-05-12T05:06:49.882Z,21.50
2018-05-12T05:09:17.503Z,22.70
2018-05-12T05:11:45.121Z,20.10
2018-05-12T05:14:12.747Z,21.67
2018-05-12T05:16:40.406Z,22.47
2018-05-12T05:19:08.315Z,24.30
2018-05-12T05:21:35.915Z,23.07
2018-05-12T05:24:03.515Z,22.43
2018-05-12T05:26:31.236Z,21.83
2018-05-12T05:28:58.842Z,21.20
2018-05-12T05:31:26.463Z,21.37
2018-05-12T05:33:54.058Z,23.23
2018-05-12T05:36:21.962Z,22.47
2018-05-12T05:38:49.566Z,23.30
2018-05-12T05:41:17.168Z,22.20
2018-05-12T05:43:44.785Z,21.43
2018-05-12T05:46:12.384Z,20.60
2018-05-12T05:48:40.008Z,20.10
2018-05-12T05:51:07.627Z,21.33
2018-05-12T05:53:35.506Z,20.97
2018-05-12T05:56:03.101Z,21.43
2018-05-12T05:58:30.738Z,19.83
2018-05-12T06:00:58.349Z,19.70
2018-05-12T06:03:25.942Z,21.37
2018-05-12T06:05:53.561Z,20.20
2018-05-12T06:08:21.159Z,20.10
2018-05-12T06:10:49.210Z,21.10
2018-05-12T06:13:16.812Z,22.27
2018-05-12T06:15:44.425Z,22.07
2018-05-12T06:18:12.114Z,22.77
2018-05-12T06:20:39.684Z,23.67
2018-05-12T06:23:07.306Z,23.87
2018-05-12T06:25:35.000Z,23.23
2018-05-12T06:28:02.793Z,24.03
2018-05-12T06:30:30.390Z,22.50
2018-05-12T06:32:58.012Z,21.93
2018-05-12T06:35:25.765Z,23.90
2018-05-12T06:37:53.370Z,23.30
2018-05-12T06:40:20.987Z,22.50
2018-05-12T06:42:48.598Z,23.50
2018-05-12T06:45:16.519Z,25.00
2018-05-12T06:47:44.131Z,24.10
2018-05-12T06:50:11.726Z,22.00
2018-05-12T06:52:39.387Z,24.13
2018-05-12T06:55:06.982Z,24.00
2018-05-12T06:57:35.033Z,22.60
2018-05-12T07:00:02.637Z,23.00
2018-05-12T07:02:30.233Z,23.70
2018-05-12T07:04:57.847Z,23.20
2018-05-12T07:07:25.539Z,23.30
2018-05-12T07:09:53.350Z,23.03
2018-05-12T07:12:21.030Z,20.43
2018-05-12T07:14:48.686Z,21.30
2018-05-12T07:17:16.314Z,19.67
2018-05-12T07:19:43.911Z,19.73
2018-05-12T07:22:11.530Z,21.20
2018-05-12T07:24:39.130Z,21.90
2018-05-12T07:27:06.767Z,20.07
2018-05-12T07:29:34.429Z,20.30
2018-05-12T07:32:02.006Z,22.93
2018-05-12T07:34:29.635Z,23.47
2018-05-12T07:36:57.248Z,22.40
2018-05-12T07:39:24.899Z,19.17
2018-05-12T07:41:52.503Z,19.77
2018-05-12T07:44:20.340Z,21.80
2018-05-12T07:46:47.938Z,20.23
2018-05-12T07:49:15.534Z,21.50
2018-05-12T07:51:43.159Z,20.77
2018-05-12T07:54:10.761Z,21.73
2018-05-12T07:56:38.497Z,21.07
2018-05-12T07:59:06.106Z,17.90
2018-05-12T08:01:33.850Z,21.97
2018-05-12T08:04:00.737Z,22.37
2018-05-12T08:06:28.365Z,20.40
2018-05-12T08:08:56.006Z,22.10
2018-05-12T08:11:23.612Z,20.00
2018-05-12T08:13:51.232Z,19.20
2018-05-12T08:16:18.975Z,22.37
2018-05-12T08:18:46.984Z,18.87
2018-05-12T08:21:14.582Z,19.60
2018-05-12T08:23:42.208Z,17.30
2018-05-12T08:26:09.887Z,18.83
2018-05-12T08:28:37.450Z,19.80
2018-05-12T08:31:05.075Z,19.33
2018-05-12T08:33:32.676Z,17.43
2018-05-12T08:36:00.336Z,19.20
2018-05-12T08:38:27.956Z,17.90
2018-05-12T08:40:55.556Z,16.03
2018-05-12T08:43:23.177Z,16.70
2018-05-12T08:45:50.786Z,18.07
2018-05-12T08:48:18.474Z,16.37
2018-05-12T08:50:46.027Z,16.93
2018-05-12T08:53:13.711Z,15.07
2018-05-12T08:55:41.405Z,13.40
2018-05-12T08:58:09.011Z,15.07
2018-05-12T09:00:36.634Z,14.40
2018-05-12T09:03:04.235Z,14.00
2018-05-12T09:05:32.059Z,13.43
2018-05-12T09:07:59.672Z,13.60
2018-05-12T09:10:27.279Z,13.90
2018-05-12T09:12:54.899Z,15.50
2018-05-12T09:15:22.496Z,12.97
2018-05-12T09:17:50.275Z,14.00
2018-05-12T09:20:17.879Z,14.80
2018-05-12T09:22:45.478Z,13.57
2018-05-12T09:25:13.115Z,14.50
2018-05-12T09:27:40.731Z,14.23
2018-05-12T09:30:08.350Z,11.47
2018-05-12T09:32:36.006Z,12.53
2018-05-12T09:35:03.651Z,11.83
2018-05-12T09:37:31.251Z,10.80
2018-05-12T09:39:58.847Z,12.23
2018-05-12T09:42:26.512Z,12.80
2018-05-12T09:44:54.211Z,11.93
2018-05-12T09:47:21.823Z,17.83
2018-05-12T09:49:49.419Z,11.70
2018-05-12T09:52:17.253Z,12.80
2018-05-12T09:54:44.876Z,15.43
2018-05-12T09:57:12.473Z,13.17
2018-05-12T09:59:40.105Z,11.77
2018-05-12T10:02:07.708Z,11.30
2018-05-12T10:04:35.330Z,11.20
2018-05-12T10:07:02.931Z,12.33
2018-05-12T10:09:30.684Z,9.80
2018-05-12T10:11:58.210Z,11.20
2018-05-12T10:14:25.884Z,11.37
2018-05-12T10:16:53.462Z,11.53
2018-05-12T10:19:21.109Z,9.87
2018-05-12T10:21:48.726Z,10.70
2018-05-12T10:24:16.323Z,9.50
2018-05-12T10:26:43.971Z,10.00
2018-05-12T10:29:11.572Z,11.20
2018-05-12T10:31:39.166Z,9.70
2018-05-12T10:34:06.789Z,10.73
2018-05-12T10:36:34.398Z,10.77
2018-05-12T10:39:02.020Z,11.60
2018-05-12T10:41:29.635Z,9.57
2018-05-12T10:43:57.273Z,10.97
2018-05-12T10:46:24.868Z,9.00
2018-05-12T10:48:52.463Z,9.93
2018-05-12T10:51:20.091Z,8.90
2018-05-12T10:53:47.707Z,8.60
2018-05-12T10:56:15.332Z,8.60
2018-05-12T10:58:42.951Z,9.60
2018-05-12T11:01:10.607Z,9.33
2018-05-12T11:03:38.194Z,8.20
2018-05-12T11:06:05.785Z,9.73
2018-05-12T11:08:33.406Z,8.43
2018-05-12T11:11:01.020Z,8.23
2018-05-12T11:13:28.649Z,7.80
2018-05-12T11:15:56.296Z,8.30
2018-05-12T11:18:23.904Z,7.97
2018-05-12T11:20:51.512Z,6.30
2018-05-12T11:23:19.125Z,8.30
2018-05-12T11:25:46.742Z,7.50
2018-05-12T11:28:14.329Z,7.07
2018-05-12T11:30:41.948Z,7.30
2018-05-12T11:33:09.552Z,7.23
2018-05-12T11:35:37.437Z,7.57
2018-05-12T11:38:05.026Z,7.47
2018-05-12T11:40:32.624Z,7.20
2018-05-12T11:43:00.246Z,6.23
2018-05-12T11:45:27.866Z,6.17
2018-05-12T11:47:55.495Z,6.00
2018-05-12T11:50:23.091Z,6.90
2018-05-12T11:52:50.747Z,7.17
2018-05-12T11:55:18.342Z,7.43
2018-05-12T11:57:45.927Z,6.07
2018-05-12T12:00:13.539Z,5.60
2018-05-12T12:02:41.138Z,6.47
2018-05-12T12:05:08.759Z,5.93
2018-05-12T12:07:36.352Z,8.40
2018-05-12T12:10:04.141Z,7.20
2018-05-12T12:12:31.732Z,7.20
2018-05-12T12:14:59.432Z,5.70
2018-05-12T12:17:27.055Z,7.30
2018-05-12T12:19:54.658Z,8.07
2018-05-12T12:22:22.276Z,4.90
2018-05-12T12:24:49.876Z,11.20
2018-05-12T12:27:17.515Z,6.90
2018-05-12T12:29:45.110Z,5.77
2018-05-12T12:32:12.756Z,5.30
2018-05-12T12:34:40.347Z,5.73
2018-05-12T12:37:07.947Z,10.20
2018-05-12T12:39:35.571Z,6.80
2018-05-12T12:42:03.162Z,5.70
2018-05-12T12:44:30.787Z,5.00
2018-05-12T12:46:58.407Z,5.20
2018-05-12T12:49:26.006Z,6.47
2018-05-12T12:51:53.637Z,5.17
2018-05-12T12:54:21.234Z,5.70
2018-05-12T12:56:48.873Z,11.50
2018-05-12T12:59:16.484Z,6.90
2018-05-12T13:01:44.338Z,10.33
2018-05-12T13:04:12.898Z,5.53
2018-05-12T13:06:40.499Z,9.47
2018-05-12T13:09:08.109Z,6.60
2018-05-12T13:11:35.695Z,5.23
2018-05-12T13:14:03.315Z,6.10
2018-05-12T13:16:30.907Z,4.30
2018-05-12T13:18:58.558Z,10.57
2018-05-12T13:21:26.171Z,9.47
2018-05-12T13:23:53.755Z,4.67
2018-05-12T13:26:21.373Z,4.67
2018-05-12T13:28:48.981Z,5.57
2018-05-12T13:31:16.599Z,4.30
2018-05-12T13:33:44.223Z,4.30
2018-05-12T13:36:11.967Z,4.47
2018-05-12T13:38:39.572Z,4.73
2018-05-12T13:41:07.162Z,4.03
2018-05-12T13:43:34.783Z,4.43
2018-05-12T13:46:02.378Z,4.20
2018-05-12T13:48:30.008Z,4.90
2018-05-12T13:50:57.610Z,4.13
2018-05-12T13:53:25.442Z,3.27
2018-05-12T13:55:53.171Z,4.53
2018-05-12T13:58:20.694Z,3.07
2018-05-12T14:00:48.318Z,7.70
2018-05-12T14:03:15.899Z,3.50
2018-05-12T14:05:43.506Z,3.10
2018-05-12T14:08:11.100Z,3.23
2018-05-12T14:10:39.190Z,3.70
2018-05-12T14:13:06.824Z,3.63
2018-05-12T14:15:34.553Z,3.50
2018-05-12T14:18:02.174Z,3.73
2018-05-12T16:19:34.255Z,4.07
2018-05-12T16:22:01.868Z,4.33
2018-05-12T16:24:29.514Z,4.50
2018-05-12T16:26:57.095Z,4.00
2018-05-12T16:29:24.851Z,3.80
2018-05-12T16:31:52.634Z,4.03
2018-05-12T16:34:20.228Z,4.87
2018-05-12T16:36:47.982Z,5.93
2018-05-12T16:39:15.633Z,4.17
2018-05-12T16:41:43.278Z,5.10
2018-05-12T16:44:10.902Z,5.17
2018-05-12T16:46:39.116Z,6.43
2018-05-12T16:49:06.734Z,4.50
2018-05-12T16:51:34.335Z,4.87
2018-05-12T16:54:02.092Z,5.07
2018-05-12T16:56:29.713Z,5.63
2018-05-12T16:58:57.359Z,6.13
2018-05-12T17:01:24.964Z,5.83
2018-05-12T17:03:52.755Z,5.40
2018-05-12T17:06:20.396Z,4.87
2018-05-12T17:08:48.109Z,5.20
2018-05-12T17:11:15.837Z,5.60
2018-05-12T17:13:43.646Z,5.70
2018-05-12T17:16:11.310Z,5.60
2018-05-12T17:18:38.969Z,5.87
2018-05-12T17:21:06.830Z,5.47
2018-05-12T17:23:34.636Z,5.70
2018-05-12T17:26:02.255Z,5.80
2018-05-12T17:28:30.022Z,5.80
2018-05-12T17:30:57.665Z,5.43
2018-05-12T17:33:25.372Z,4.63
2018-05-12T17:35:52.997Z,5.70
2018-05-12T17:38:20.642Z,5.80
2018-05-12T17:40:48.250Z,6.00
2018-05-12T17:43:15.867Z,4.53
2018-05-12T17:45:43.509Z,4.80
2018-05-12T17:48:11.130Z,5.77
2018-05-12T17:50:38.828Z,5.10
2018-05-12T17:53:06.449Z,4.77
2018-05-12T17:55:34.533Z,4.67
2018-05-12T17:58:02.101Z,4.93
2018-05-12T18:00:30.176Z,5.63
2018-05-12T18:02:57.801Z,5.30
2018-05-12T18:05:25.745Z,5.10
2018-05-12T18:07:53.376Z,5.10
2018-05-12T18:10:21.059Z,4.80
2018-05-12T18:12:48.839Z,5.10
2018-05-12T18:15:16.466Z,5.50
2018-05-12T18:17:44.119Z,4.53
2018-05-12T18:20:11.745Z,4.90
2018-05-12T18:22:39.341Z,5.90
2018-05-12T18:25:07.142Z,5.63
2018-05-12T18:27:34.732Z,6.50
2018-05-12T18:30:02.693Z,6.30
2018-05-12T18:32:30.629Z,6.80
2018-05-12T18:34:58.247Z,6.00
2018-05-12T18:37:25.879Z,6.13
2018-05-12T18:39:53.484Z,6.33
2018-05-12T18:42:21.502Z,6.47
2018-05-12T18:44:49.123Z,6.30
2018-05-12T18:47:16.739Z,7.30
2018-05-12T18:49:44.400Z,7.00
2018-05-12T18:52:11.990Z,6.00
2018-05-12T18:54:40.028Z,6.90
2018-05-12T18:57:07.631Z,6.40
2018-05-12T18:59:35.273Z,6.87
2018-05-12T19:02:02.902Z,7.07
2018-05-12T19:04:30.640Z,7.57
2018-05-12T19:06:58.722Z,7.40
2018-05-12T19:09:26.393Z,6.83
2018-05-12T19:11:54.010Z,6.63
2018-05-12T19:14:21.673Z,7.70
2018-05-12T19:16:49.293Z,6.50
2018-05-12T19:19:16.927Z,6.63
2018-05-12T19:21:44.529Z,6.97
2018-05-12T19:24:12.191Z,6.90
2018-05-12T19:26:39.807Z,6.20
2018-05-12T19:29:07.416Z,6.50
2018-05-12T19:31:35.060Z,6.93
2018-05-12T19:34:02.682Z,7.50
2018-05-12T19:36:30.338Z,5.87
2018-05-12T19:38:57.951Z,6.60
2018-05-12T19:41:25.607Z,5.70
2018-05-12T19:43:53.242Z,6.13
2018-05-12T19:46:20.851Z,6.67
2018-05-12T19:48:48.498Z,6.10
2018-05-12T19:51:16.106Z,6.50
2018-05-12T19:53:43.753Z,5.60
2018-05-12T19:56:11.353Z,5.40
2018-05-12T19:58:39.230Z,5.00
2018-05-12T20:01:06.858Z,5.40
2018-05-12T20:03:34.472Z,5.37
2018-05-12T20:06:02.090Z,7.10
2018-05-12T20:08:29.707Z,5.10
2018-05-12T20:10:58.037Z,5.57
2018-05-12T20:13:25.736Z,4.90
2018-05-12T20:15:53.426Z,5.30
2018-05-12T20:18:21.252Z,5.20
2018-05-12T20:20:48.852Z,4.80
2018-05-12T20:23:16.493Z,8.13
2018-05-12T20:25:44.089Z,5.27
2018-05-12T20:28:11.834Z,5.27
2018-05-12T20:30:39.453Z,4.60
2018-05-12T20:33:07.671Z,4.90
2018-05-12T20:35:35.301Z,6.33
2018-05-12T20:38:02.923Z,4.80
2018-05-12T20:40:30.729Z,5.10
2018-05-12T20:42:58.355Z,4.37
2018-05-12T20:45:25.994Z,5.83
2018-05-12T20:47:53.601Z,5.57
2018-05-12T20:50:21.486Z,4.93
2018-05-12T20:52:49.079Z,5.47
2018-05-12T20:55:16.689Z,4.70
2018-05-12T20:57:44.307Z,5.63
2018-05-12T21:00:11.913Z,5.10
2018-05-12T21:02:39.540Z,5.70
2018-05-12T21:05:07.171Z,4.80
2018-05-12T21:07:35.082Z,5.30
2018-05-12T21:10:02.688Z,5.60
2018-05-12T21:12:30.319Z,5.87
2018-05-12T21:14:57.935Z,5.43
2018-05-12T21:17:25.949Z,6.23
2018-05-12T21:19:53.581Z,6.17
2018-05-12T21:22:21.229Z,5.90
2018-05-12T21:24:49.004Z,6.00
2018-05-12T21:27:16.621Z,8.63
2018-05-12T21:29:44.432Z,6.63
2018-05-12T21:32:12.694Z,6.80
2018-05-12T21:34:40.537Z,7.00
2018-05-12T21:37:08.376Z,6.60
2018-05-12T21:39:36.211Z,8.90
2018-05-12T21:42:04.237Z,7.70
2018-05-12T21:44:31.905Z,6.10
2018-05-12T21:46:59.692Z,7.57
2018-05-12T21:49:27.330Z,7.70
2018-05-12T21:51:54.999Z,7.10
2018-05-12T21:54:22.629Z,7.07
2018-05-12T21:56:50.229Z,7.30
2018-05-12T21:59:17.910Z,6.63
2018-05-12T22:01:45.506Z,7.80
2018-05-12T22:04:13.118Z,8.33
2018-05-12T22:06:40.744Z,20.37
2018-05-12T22:09:08.349Z,9.43
2018-05-12T22:11:35.995Z,8.60
2018-05-12T22:14:03.603Z,8.60
2018-05-12T22:16:31.434Z,8.20
2018-05-12T22:18:59.029Z,9.23
2018-05-12T22:21:26.631Z,7.97
2018-05-12T22:23:54.266Z,11.10
2018-05-12T22:26:21.886Z,8.17
2018-05-12T22:28:49.512Z,7.97
2018-05-12T22:31:17.317Z,8.90
2018-05-12T22:33:45.157Z,7.43
2018-05-12T22:36:12.965Z,8.93
2018-05-12T22:38:40.844Z,11.47
2018-05-12T22:41:09.116Z,8.50
2018-05-12T22:43:36.732Z,14.73
2018-05-12T22:46:04.392Z,13.07
2018-05-12T22:48:32.114Z,9.37
2018-05-12T22:51:00.233Z,10.20
2018-05-12T22:53:27.838Z,9.30
2018-05-12T22:55:55.456Z,37.47
2018-05-12T22:58:23.084Z,9.70
2018-05-12T23:00:50.699Z,9.57
2018-05-12T23:03:18.335Z,10.73
2018-05-12T23:05:45.943Z,9.60
2018-05-12T23:08:14.053Z,9.70
2018-05-12T23:10:41.683Z,13.57
2018-05-12T23:13:09.307Z,9.20
2018-05-12T23:15:37.038Z,8.60
2018-05-12T23:18:04.686Z,15.17
2018-05-12T23:20:32.374Z,9.80
2018-05-12T23:23:00.041Z,16.80
2018-05-12T23:25:28.021Z,10.03
2018-05-12T23:27:56.197Z,9.53
2018-05-12T23:30:23.835Z,9.20
2018-05-12T23:32:51.506Z,10.03
2018-05-12T23:35:19.158Z,10.30
2018-05-12T23:37:46.976Z,17.70
2018-05-12T23:40:14.672Z,9.90
2018-05-12T23:42:42.509Z,9.93
2018-05-12T23:45:10.134Z,10.90
2018-05-12T23:47:37.868Z,9.93
2018-05-12T23:50:05.513Z,16.40
2018-05-12T23:52:33.143Z,59.27
2018-05-12T23:55:00.767Z,12.17
2018-05-12T23:57:28.377Z,11.07
2018-05-12T23:59:56.105Z,10.50
